Terminal Aerodrome Forecast
Issued by NWS

Home | Current Version | Previous Version | Text Only | Print | Product List | Glossary On
Versions: 1 2 3 4 5 6 7 8 9 10 11 12 13
258
FTUS45 KVEF 280526
TAFHND
TAF
KHND 280526Z 2806/0106 19010KT P6SM SCT060 BKN200
     FM281700 34008KT P6SM SCT060
     FM010400 VRB06KT P6SM SKC=

USA.gov is the U.S. government's official web portal to all federal, state and local government web resources and services.